SANR

Details ICAO SANR
Name TERMAS DE RIO HONDO
Region Argentina
Timezone America/Argentina/Cordoba (UTC-3.0)
Plans Departing 2
Arriving 1
Stats Elevation 919 ft / 280 m (AMSL)
Location -27.496787° -64.936340°
Runways 1
Magnetic Variation 6.785° W
Sunrise 2017-12-13 09:19:46 UTC / 2017-12-13 06:19:46 Local
Sunset 2017-12-13 23:11:08 UTC / 2017-12-13 20:11:08 Local
Advertisement - Login to hide

Runways

ID Width Length Bearing (true) Bearing (mag) Surface Threshold Offset Overrun Length
1 98 ft / 30 m 8,232 ft / 2,509 m 1.32° 8.10° Asphalt 0 ft / 0 m 0 ft / 0 m
19 98 ft / 30 m 8,232 ft / 2,509 m 181.32° 188.10° Asphalt 0 ft / 0 m 0 ft / 0 m

Map

Weather


0- 5 10 15 20 25 30 35+ Temperature / ° C

Clouds and Precipitation
Forecast for 2017-12-13 12:00 UTC. Updated 23 minutes ago

Ground ~20,000 ft ~40,000 ft Winds

METAR

Not found

TAF

TAF SANR 130500Z 1306/1406 36010KT 9999 FEW030 TX36/1318Z TN20/1310Z BECMG 1312/1315 02015KT BECMG 1400/1403 VRB03KT

Frequencies

Tower 118.30 MHz TWR
Warning: Do not use this data for real-world aviation or navigation. No guarantee of current accuracy is given.